Terminal Aerodrome Forecast
Issued by NWS

Home | Current Version | Previous Version | Text Only | Print | Product List | Glossary Off
Versions: 1 2 3 4 5 6 7 8 9 10 11 12 13 14 15 16

000
FTUS43 KMPX 031120
TAFRWF
TAF
KRWF 031120Z 0312/0412 15008KT P6SM SCT100
     FM031600 28007KT P6SM SCT100
     FM031800 34008KT P6SM BKN050
     FM032100 35012G20KT P6SM BKN050
     FM040100 35009KT P6SM SCT060
     FM040600 35006KT P6SM SKC=

USA.gov is the U.S. government's official web portal to all federal, state and local government web resources and services.